This is the latest recevied weather packets stored in our database for station/object VE3GIF. If no packets are shown the sender has not sent any weather packets the latest 1 day(s).
| Time | Temp. | Humidity | Pressure | Rain* | Wind** | Luminosity | Snow |
|---|---|---|---|---|---|---|---|
| 1836274600 | 15° C | 65% | 1021.8 hPa | 0 mm | 0 m/s | - | - |
| 1836274300 | 15° C | 65% | 1021.8 hPa | 0 mm | 0.89 m/s, 5° | - | - |
| 1836274000 | 15.56° C | 66% | 1021.8 hPa | 0 mm | 0.45 m/s, 5° | - | - |
| 1778041353 | 7.22° C | 87% | 1008.4 hPa | 0 mm | 0 m/s | - | - |
| 1778041048 | 7.22° C | 87% | 1008.4 hPa | 0 mm | 0 m/s | - | - |
| 1778040748 | 7.22° C | 87% | 1008.5 hPa | 0 mm | 0 m/s | - | - |
| 1778040448 | 7.22° C | 87% | 1008.3 hPa | 0 mm | 0 m/s | - | - |
| 1778040148 | 7.22° C | 86% | 1008.3 hPa | 0 mm | 0 m/s | - | - |
| 1778039847 | 7.22° C | 86% | 1008.2 hPa | 0 mm | 0 m/s | - | - |
| 1778039247 | 7.22° C | 86% | 1008.3 hPa | 0 mm | 0.45 m/s, 138° | - | - |
| 1778038947 | 7.22° C | 86% | 1008.3 hPa | 0 mm | 0 m/s | - | - |
| 1778038646 | 7.22° C | 86% | 1008.3 hPa | 0 mm | 0 m/s | - | - |
| 1778038346 | 7.22° C | 86% | 1008.4 hPa | 0 mm | 0.89 m/s, 133° | - | - |
| 1778038046 | 7.78° C | 86% | 1008.3 hPa | 0 mm | 0.45 m/s, 128° | - | - |
| 1778037745 | 7.78° C | 86% | 1008.3 hPa | 0 mm | 0.45 m/s, 138° | - | - |
| 1778037445 | 7.78° C | 86% | 1008.2 hPa | 0 mm | 0.45 m/s, 138° | - | - |
| 1778037145 | 7.78° C | 86% | 1008.1 hPa | 0 mm | 0.89 m/s, 136° | - | - |
| 1778036845 | 7.78° C | 86% | 1008.1 hPa | 0 mm | 0 m/s | - | - |
| 1778036544 | 7.78° C | 86% | 1008 hPa | 0 mm | 0.45 m/s, 132° | - | - |
| 1778036244 | 7.78° C | 86% | 1008.1 hPa | 0 mm | 0.89 m/s, 136° | - | - |
| 1778035944 | 7.22° C | 86% | 1008.2 hPa | 0 mm | 0.89 m/s, 136° | - | - |
| 1778035643 | 7.22° C | 85% | 1008.3 hPa | 0 mm | 0.45 m/s, 130° | - | - |
| 1778035343 | 7.22° C | 85% | 1008.2 hPa | 0 mm | 0 m/s | - | - |
| 1778035043 | 7.22° C | 85% | 1008.3 hPa | 0 mm | 0.45 m/s, 130° | - | - |
| 1778034743 | 7.22° C | 85% | 1008.4 hPa | 0 mm | 0.45 m/s, 136° | - | - |
* Rain latest hour (hover to see other rain measurements)
** Current wind speed in m/s (hover to see current wind gust speed)